Swan River, Canada
Current Conditions -  °F | °C
As of 5:00 AM on Sunday 21 Dec 2014 (Local Time) from CYQV Reporting Station
Haze Haze  
Wind Chill: 20°   Ceiling: 400
Heat Index: 27°   Visibility: 1.2mi
Dew Point: 27°   Wind: 6mph
Humidity: 100%   Direction: 170°S
Pressure: 29.56"   Gusts: NA
Location:  52.11°N, 101.25°W
Report Text: CYQV 211100Z AUTO 17005KT 1 1/4SM BR OVC004 M03/M03 A2956 RMK SLP040
Loading
Personal Weather Stations






























Interactive Weather Map New forecast layout! Learn more

10-Day Weather Forecast

Advertisements
Track Severe Weather on mobile